sensor_id;sensor_type;location;lat;lon;timestamp;pressure;altitude;pressure_sealevel;temperature;humidity
6449;BME280;3257;52.298;13.690;2022-12-18T00:00:04;80593.16;;;-144.77;83.28
6449;BME280;3257;52.298;13.690;2022-12-18T00:02:31;80623.00;;;-144.77;83.32
6449;BME280;3257;52.298;13.690;2022-12-18T00:04:58;80607.09;;;-144.77;83.44
6449;BME280;3257;52.298;13.690;2022-12-18T00:07:25;80611.06;;;-144.77;83.67
6449;BME280;3257;52.298;13.690;2022-12-18T00:09:52;80623.00;;;-144.77;82.99
6449;BME280;3257;52.298;13.690;2022-12-18T00:12:18;80597.16;;;-144.77;83.52
6449;BME280;3257;52.298;13.690;2022-12-18T00:14:45;80603.13;;;-144.77;83.02
6449;BME280;3257;52.298;13.690;2022-12-18T00:17:11;80607.09;;;-144.77;82.32
6449;BME280;3257;52.298;13.690;2022-12-18T00:19:38;80619.03;;;-144.77;82.91
6449;BME280;3257;52.298;13.690;2022-12-18T00:22:04;80617.03;;;-144.77;82.80
6449;BME280;3257;52.298;13.690;2022-12-18T00:24:32;80638.94;;;-144.77;83.22
6449;BME280;3257;52.298;13.690;2022-12-18T00:26:58;80646.88;;;-144.77;83.82
6449;BME280;3257;52.298;13.690;2022-12-18T00:29:25;80636.94;;;-144.77;84.02
6449;BME280;3257;52.298;13.690;2022-12-18T00:31:51;80644.91;;;-144.77;83.84
6449;BME280;3257;52.298;13.690;2022-12-18T00:34:18;80634.94;;;-144.77;84.37
6449;BME280;3257;52.298;13.690;2022-12-18T00:36:47;80642.91;;;-144.77;84.43
6449;BME280;3257;52.298;13.690;2022-12-18T00:39:14;80628.97;;;-144.77;84.69
6449;BME280;3257;52.298;13.690;2022-12-18T00:41:40;80627.00;;;-144.77;84.64
6449;BME280;3257;52.298;13.690;2022-12-18T00:44:25;80619.03;;;-144.77;84.02
6449;BME280;3257;52.298;13.690;2022-12-18T00:46:52;80625.00;;;-144.77;84.12
6449;BME280;3257;52.298;13.690;2022-12-18T00:49:19;80650.88;;;-144.77;84.18
6449;BME280;3257;52.298;13.690;2022-12-18T00:51:46;80640.91;;;-144.77;84.47
6449;BME280;3257;52.298;13.690;2022-12-18T00:54:14;80652.84;;;-144.77;84.59
6449;BME280;3257;52.298;13.690;2022-12-18T00:56:40;80666.78;;;-144.77;84.98
6449;BME280;3257;52.298;13.690;2022-12-18T00:59:16;80636.94;;;-144.77;84.52
6449;BME280;3257;52.298;13.690;2022-12-18T01:01:43;80652.84;;;-144.77;84.47
6449;BME280;3257;52.298;13.690;2022-12-18T01:04:10;80694.63;;;-144.77;84.99
6449;BME280;3257;52.298;13.690;2022-12-18T01:06:36;80692.66;;;-144.77;85.09
6449;BME280;3257;52.298;13.690;2022-12-18T01:09:03;80682.69;;;-144.77;85.06
6449;BME280;3257;52.298;13.690;2022-12-18T01:11:30;80696.63;;;-144.77;85.43
6449;BME280;3257;52.298;13.690;2022-12-18T01:13:59;80694.63;;;-144.77;85.52
6449;BME280;3257;52.298;13.690;2022-12-18T01:16:26;80694.63;;;-144.77;85.64
6449;BME280;3257;52.298;13.690;2022-12-18T01:18:53;80696.63;;;-144.77;85.72
6449;BME280;3257;52.298;13.690;2022-12-18T01:21:21;80698.63;;;-144.77;85.75
6449;BME280;3257;52.298;13.690;2022-12-18T01:23:53;80676.72;;;-144.77;85.79
6449;BME280;3257;52.298;13.690;2022-12-18T01:26:19;80694.63;;;-144.77;84.92
6449;BME280;3257;52.298;13.690;2022-12-18T01:28:46;80680.72;;;-144.77;85.46
6449;BME280;3257;52.298;13.690;2022-12-18T01:31:21;80678.72;;;-144.77;84.97
6449;BME280;3257;52.298;13.690;2022-12-18T01:33:48;80680.72;;;-144.77;84.61
6449;BME280;3257;52.298;13.690;2022-12-18T01:36:18;80688.66;;;-144.77;84.49
6449;BME280;3257;52.298;13.690;2022-12-18T01:38:45;80692.66;;;-144.77;84.59
6449;BME280;3257;52.298;13.690;2022-12-18T01:41:13;80682.69;;;-144.77;84.78
6449;BME280;3257;52.298;13.690;2022-12-18T01:43:45;80680.72;;;-144.77;84.77
6449;BME280;3257;52.298;13.690;2022-12-18T01:46:12;80686.69;;;-144.77;84.71
6449;BME280;3257;52.298;13.690;2022-12-18T01:48:39;80688.66;;;-144.77;84.44
6449;BME280;3257;52.298;13.690;2022-12-18T01:51:08;80684.69;;;-144.77;84.43
6449;BME280;3257;52.298;13.690;2022-12-18T01:53:36;80684.69;;;-144.77;84.44
6449;BME280;3257;52.298;13.690;2022-12-18T01:56:04;80690.66;;;-144.77;84.98
6449;BME280;3257;52.298;13.690;2022-12-18T02:01:12;80700.59;;;-144.77;84.77
6449;BME280;3257;52.298;13.690;2022-12-18T02:03:41;80694.63;;;-144.77;84.88
6449;BME280;3257;52.298;13.690;2022-12-18T02:06:11;80700.59;;;-144.77;84.42
6449;BME280;3257;52.298;13.690;2022-12-18T02:08:57;80722.50;;;-144.77;85.37
6449;BME280;3257;52.298;13.690;2022-12-18T02:11:52;80722.50;;;-144.77;85.44
6449;BME280;3257;52.298;13.690;2022-12-18T02:14:31;80740.41;;;-144.77;84.79
6449;BME280;3257;52.298;13.690;2022-12-18T02:17:11;80740.41;;;-144.77;85.41
6449;BME280;3257;52.298;13.690;2022-12-18T02:20:05;80768.25;;;-144.77;84.99
6449;BME280;3257;52.298;13.690;2022-12-18T02:22:45;80746.38;;;-144.77;84.74
6449;BME280;3257;52.298;13.690;2022-12-18T02:25:25;80752.34;;;-144.77;85.04
6449;BME280;3257;52.298;13.690;2022-12-18T02:28:00;80772.22;;;-144.77;84.98
6449;BME280;3257;52.298;13.690;2022-12-18T02:30:31;80766.25;;;-144.77;85.34
6449;BME280;3257;52.298;13.690;2022-12-18T02:32:59;80758.31;;;-144.77;85.09
6449;BME280;3257;52.298;13.690;2022-12-18T02:35:29;80768.25;;;-144.77;85.10
6449;BME280;3257;52.298;13.690;2022-12-18T02:37:57;80756.31;;;-144.77;84.97
6449;BME280;3257;52.298;13.690;2022-12-18T02:40:26;80744.38;;;-144.77;84.69
6449;BME280;3257;52.298;13.690;2022-12-18T02:42:54;80764.28;;;-144.77;84.24
6449;BME280;3257;52.298;13.690;2022-12-18T02:45:20;80746.38;;;-144.77;83.79
6449;BME280;3257;52.298;13.690;2022-12-18T02:47:49;80738.41;;;-144.77;83.80
6449;BME280;3257;52.298;13.690;2022-12-18T02:50:26;80740.41;;;-144.77;83.71
6449;BME280;3257;52.298;13.690;2022-12-18T03:01:15;80772.22;;;-144.77;83.89
6449;BME280;3257;52.298;13.690;2022-12-18T03:03:52;80756.31;;;-144.77;83.62
6449;BME280;3257;52.298;13.690;2022-12-18T03:06:30;80754.31;;;-144.77;83.97
6449;BME280;3257;52.298;13.690;2022-12-18T03:09:17;80768.25;;;-144.77;83.72
6449;BME280;3257;52.298;13.690;2022-12-18T03:11:54;80780.19;;;-144.77;84.39
6449;BME280;3257;52.298;13.690;2022-12-18T03:14:43;80808.03;;;-144.77;84.61
6449;BME280;3257;52.298;13.690;2022-12-18T03:17:13;80772.22;;;-144.77;85.14
6449;BME280;3257;52.298;13.690;2022-12-18T03:19:42;80764.28;;;-144.77;84.44
6449;BME280;3257;52.298;13.690;2022-12-18T03:22:10;80772.22;;;-144.77;84.97
6449;BME280;3257;52.298;13.690;2022-12-18T03:24:38;80750.34;;;-144.77;84.43
6449;BME280;3257;52.298;13.690;2022-12-18T03:27:09;80746.38;;;-144.77;84.57
6449;BME280;3257;52.298;13.690;2022-12-18T03:29:42;80752.34;;;-144.77;84.61
6449;BME280;3257;52.298;13.690;2022-12-18T03:32:14;80792.13;;;-144.77;84.75
6449;BME280;3257;52.298;13.690;2022-12-18T03:34:43;80786.16;;;-144.77;85.45
6449;BME280;3257;52.298;13.690;2022-12-18T03:37:12;80778.19;;;-144.77;85.54
6449;BME280;3257;52.298;13.690;2022-12-18T03:39:38;80760.28;;;-144.77;85.32
6449;BME280;3257;52.298;13.690;2022-12-18T03:42:37;80784.16;;;-144.77;85.06
6449;BME280;3257;52.298;13.690;2022-12-18T03:45:19;80794.13;;;-144.77;85.82
6449;BME280;3257;52.298;13.690;2022-12-18T03:47:58;80778.19;;;-144.77;85.56
6449;BME280;3257;52.298;13.690;2022-12-18T03:51:18;80766.25;;;-144.77;85.57
6449;BME280;3257;52.298;13.690;2022-12-18T03:56:18;80762.28;;;-144.77;85.29
6449;BME280;3257;52.298;13.690;2022-12-18T03:58:47;80756.31;;;-144.77;84.92
6449;BME280;3257;52.298;13.690;2022-12-18T04:01:16;80792.13;;;-144.77;84.84
6449;BME280;3257;52.298;13.690;2022-12-18T04:03:46;80764.28;;;-144.77;85.19
6449;BME280;3257;52.298;13.690;2022-12-18T04:06:16;80760.28;;;-144.77;84.87
6449;BME280;3257;52.298;13.690;2022-12-18T04:08:43;80756.31;;;-144.77;84.79
6449;BME280;3257;52.298;13.690;2022-12-18T04:11:10;80758.31;;;-144.77;84.87
6449;BME280;3257;52.298;13.690;2022-12-18T04:13:37;80742.38;;;-144.77;84.24
6449;BME280;3257;52.298;13.690;2022-12-18T04:16:05;80768.25;;;-144.77;84.84
6449;BME280;3257;52.298;13.690;2022-12-18T04:18:31;80780.19;;;-144.77;85.17
6449;BME280;3257;52.298;13.690;2022-12-18T04:20:58;80788.16;;;-144.77;85.61
6449;BME280;3257;52.298;13.690;2022-12-18T04:23:24;80776.22;;;-144.77;84.99
6449;BME280;3257;52.298;13.690;2022-12-18T04:25:51;80750.34;;;-144.77;85.30
6449;BME280;3257;52.298;13.690;2022-12-18T04:28:17;80770.25;;;-144.77;84.78
6449;BME280;3257;52.298;13.690;2022-12-18T04:30:44;80764.28;;;-144.77;84.81
6449;BME280;3257;52.298;13.690;2022-12-18T04:33:12;80748.34;;;-144.77;85.16
6449;BME280;3257;52.298;13.690;2022-12-18T04:35:39;80770.25;;;-144.77;84.76
6449;BME280;3257;52.298;13.690;2022-12-18T04:38:07;80768.25;;;-144.77;85.35
6449;BME280;3257;52.298;13.690;2022-12-18T04:40:34;80778.19;;;-144.77;85.07
6449;BME280;3257;52.298;13.690;2022-12-18T04:43:01;80778.19;;;-144.77;84.86
6449;BME280;3257;52.298;13.690;2022-12-18T04:45:30;80774.22;;;-144.77;85.16
6449;BME280;3257;52.298;13.690;2022-12-18T04:47:57;80784.16;;;-144.77;85.36
6449;BME280;3257;52.298;13.690;2022-12-18T04:50:24;80804.06;;;-144.77;85.27
6449;BME280;3257;52.298;13.690;2022-12-18T04:52:50;80782.19;;;-144.77;85.00
6449;BME280;3257;52.298;13.690;2022-12-18T04:55:17;80774.22;;;-144.77;84.89
6449;BME280;3257;52.298;13.690;2022-12-18T04:57:43;80794.13;;;-144.77;84.50
6449;BME280;3257;52.298;13.690;2022-12-18T05:00:10;80778.19;;;-144.77;84.72
6449;BME280;3257;52.298;13.690;2022-12-18T05:02:37;80790.13;;;-144.77;84.85
6449;BME280;3257;52.298;13.690;2022-12-18T05:05:04;80778.19;;;-144.77;84.89
6449;BME280;3257;52.298;13.690;2022-12-18T05:07:30;80794.13;;;-144.77;84.97
6449;BME280;3257;52.298;13.690;2022-12-18T05:09:57;80770.25;;;-144.77;85.44
6449;BME280;3257;52.298;13.690;2022-12-18T05:12:23;80764.28;;;-144.77;84.29
6449;BME280;3257;52.298;13.690;2022-12-18T05:14:50;80762.28;;;-144.77;84.62
6449;BME280;3257;52.298;13.690;2022-12-18T05:17:16;80782.19;;;-144.77;84.47
6449;BME280;3257;52.298;13.690;2022-12-18T05:19:43;80804.06;;;-144.77;84.04
6449;BME280;3257;52.298;13.690;2022-12-18T05:22:09;80780.19;;;-144.77;84.29
6449;BME280;3257;52.298;13.690;2022-12-18T05:24:36;80798.09;;;-144.77;84.53
6449;BME280;3257;52.298;13.690;2022-12-18T05:27:03;80794.13;;;-144.77;84.68
6449;BME280;3257;52.298;13.690;2022-12-18T05:29:29;80784.16;;;-144.77;84.67
6449;BME280;3257;52.298;13.690;2022-12-18T05:31:55;80786.16;;;-144.77;84.47
6449;BME280;3257;52.298;13.690;2022-12-18T05:34:22;80790.13;;;-144.77;84.72
6449;BME280;3257;52.298;13.690;2022-12-18T05:36:48;80794.13;;;-144.77;84.54
6449;BME280;3257;52.298;13.690;2022-12-18T05:39:15;80792.13;;;-144.77;84.42
6449;BME280;3257;52.298;13.690;2022-12-18T05:41:41;80818.00;;;-144.77;84.83
6449;BME280;3257;52.298;13.690;2022-12-18T05:44:08;80819.97;;;-144.77;84.74
6449;BME280;3257;52.298;13.690;2022-12-18T05:46:35;80806.06;;;-144.77;84.82
6449;BME280;3257;52.298;13.690;2022-12-18T05:49:02;80804.06;;;-144.77;84.82
6449;BME280;3257;52.298;13.690;2022-12-18T05:51:28;80810.03;;;-144.77;84.45
6449;BME280;3257;52.298;13.690;2022-12-18T05:53:55;80804.06;;;-144.77;84.11
6449;BME280;3257;52.298;13.690;2022-12-18T05:56:22;80798.09;;;-144.77;84.19
6449;BME280;3257;52.298;13.690;2022-12-18T05:58:53;80827.94;;;-144.77;83.74
6449;BME280;3257;52.298;13.690;2022-12-18T06:01:23;80818.00;;;-144.77;83.87
6449;BME280;3257;52.298;13.690;2022-12-18T06:03:50;80821.97;;;-144.77;83.87
6449;BME280;3257;52.298;13.690;2022-12-18T06:06:25;80833.91;;;-144.77;84.23
6449;BME280;3257;52.298;13.690;2022-12-18T06:08:53;80843.84;;;-144.77;85.08
6449;BME280;3257;52.298;13.690;2022-12-18T06:11:22;80837.88;;;-144.77;84.57
6449;BME280;3257;52.298;13.690;2022-12-18T06:13:51;80835.91;;;-144.77;84.68
6449;BME280;3257;52.298;13.690;2022-12-18T06:16:24;80845.84;;;-144.77;84.24
6449;BME280;3257;52.298;13.690;2022-12-18T06:18:50;80861.75;;;-144.77;85.36
6449;BME280;3257;52.298;13.690;2022-12-18T06:21:17;80859.78;;;-144.77;85.49
6449;BME280;3257;52.298;13.690;2022-12-18T06:23:43;80851.81;;;-144.77;84.77
6449;BME280;3257;52.298;13.690;2022-12-18T06:26:11;80833.91;;;-144.77;84.68
6449;BME280;3257;52.298;13.690;2022-12-18T06:28:38;80841.88;;;-144.77;84.66
6449;BME280;3257;52.298;13.690;2022-12-18T06:31:05;80829.94;;;-144.77;84.74
6449;BME280;3257;52.298;13.690;2022-12-18T06:33:32;80833.91;;;-144.77;84.79
6449;BME280;3257;52.298;13.690;2022-12-18T06:36:04;80851.81;;;-144.77;84.38
6449;BME280;3257;52.298;13.690;2022-12-18T06:38:35;80877.69;;;-144.77;84.79
6449;BME280;3257;52.298;13.690;2022-12-18T06:41:13;80873.69;;;-144.77;85.00
6449;BME280;3257;52.298;13.690;2022-12-18T06:43:41;80857.78;;;-144.77;84.83
6449;BME280;3257;52.298;13.690;2022-12-18T06:46:08;80861.75;;;-144.77;84.54
6449;BME280;3257;52.298;13.690;2022-12-18T06:48:35;80869.72;;;-144.77;85.13
6449;BME280;3257;52.298;13.690;2022-12-18T06:51:02;80887.63;;;-144.77;85.39
6449;BME280;3257;52.298;13.690;2022-12-18T06:53:29;80879.66;;;-144.77;85.82
6449;BME280;3257;52.298;13.690;2022-12-18T06:56:06;80901.56;;;-144.77;85.87
6449;BME280;3257;52.298;13.690;2022-12-18T06:58:36;80895.59;;;-144.77;86.43
6449;BME280;3257;52.298;13.690;2022-12-18T07:01:04;80901.56;;;-144.77;87.05
6449;BME280;3257;52.298;13.690;2022-12-18T07:03:31;80893.59;;;-144.77;86.97
6449;BME280;3257;52.298;13.690;2022-12-18T07:05:58;80885.63;;;-144.77;87.00
6449;BME280;3257;52.298;13.690;2022-12-18T07:08:25;80883.66;;;-144.77;86.64
6449;BME280;3257;52.298;13.690;2022-12-18T07:10:51;80881.66;;;-144.77;87.07
6449;BME280;3257;52.298;13.690;2022-12-18T07:13:22;80893.59;;;-144.77;86.86
6449;BME280;3257;52.298;13.690;2022-12-18T07:15:48;80877.69;;;-144.77;87.11
6449;BME280;3257;52.298;13.690;2022-12-18T07:18:15;80873.69;;;-144.77;86.73
6449;BME280;3257;52.298;13.690;2022-12-18T07:20:41;80861.75;;;-144.77;87.09
6449;BME280;3257;52.298;13.690;2022-12-18T07:23:08;80845.84;;;-144.77;87.37
6449;BME280;3257;52.298;13.690;2022-12-18T07:25:36;80839.88;;;-144.77;87.32
6449;BME280;3257;52.298;13.690;2022-12-18T07:28:03;80819.97;;;-144.77;86.64
6449;BME280;3257;52.298;13.690;2022-12-18T07:30:30;80810.03;;;-144.77;86.45
6449;BME280;3257;52.298;13.690;2022-12-18T07:32:56;80804.06;;;-144.77;86.99
6449;BME280;3257;52.298;13.690;2022-12-18T07:35:23;80800.09;;;-144.77;86.54
6449;BME280;3257;52.298;13.690;2022-12-18T07:37:50;80821.97;;;-144.77;86.79
6449;BME280;3257;52.298;13.690;2022-12-18T07:40:17;80821.97;;;-144.77;87.12
6449;BME280;3257;52.298;13.690;2022-12-18T07:42:43;80818.00;;;-144.77;87.25
6449;BME280;3257;52.298;13.690;2022-12-18T07:45:10;80790.13;;;-144.77;87.12
6449;BME280;3257;52.298;13.690;2022-12-18T07:47:37;80816.00;;;-144.77;86.77
6449;BME280;3257;52.298;13.690;2022-12-18T07:50:04;80784.16;;;-144.77;87.57
6449;BME280;3257;52.298;13.690;2022-12-18T07:52:31;80776.22;;;-144.77;87.41
6449;BME280;3257;52.298;13.690;2022-12-18T07:54:58;80784.16;;;-144.77;87.28
6449;BME280;3257;52.298;13.690;2022-12-18T07:57:24;80774.22;;;-144.77;87.42
6449;BME280;3257;52.298;13.690;2022-12-18T08:00:11;80776.22;;;-144.77;87.12
6449;BME280;3257;52.298;13.690;2022-12-18T08:02:38;80760.28;;;-144.77;87.37
6449;BME280;3257;52.298;13.690;2022-12-18T08:05:05;80744.38;;;-144.77;87.44
6449;BME280;3257;52.298;13.690;2022-12-18T08:07:32;80754.31;;;-144.77;87.20
6449;BME280;3257;52.298;13.690;2022-12-18T08:09:58;80744.38;;;-144.77;87.64
6449;BME280;3257;52.298;13.690;2022-12-18T08:12:25;80742.38;;;-144.77;87.67
6449;BME280;3257;52.298;13.690;2022-12-18T08:14:51;80744.38;;;-144.77;87.90
6449;BME280;3257;52.298;13.690;2022-12-18T08:17:19;80730.44;;;-144.77;88.11
6449;BME280;3257;52.298;13.690;2022-12-18T08:19:45;80720.50;;;-144.77;88.29
6449;BME280;3257;52.298;13.690;2022-12-18T08:22:12;80706.56;;;-144.77;88.04
6449;BME280;3257;52.298;13.690;2022-12-18T08:24:38;80702.59;;;-144.77;87.67
6449;BME280;3257;52.298;13.690;2022-12-18T08:27:05;80692.66;;;-144.77;87.66
6449;BME280;3257;52.298;13.690;2022-12-18T08:29:51;80700.59;;;-144.77;87.14
6449;BME280;3257;52.298;13.690;2022-12-18T08:32:17;80698.63;;;-144.77;87.02
6449;BME280;3257;52.298;13.690;2022-12-18T08:34:44;80680.72;;;-144.77;87.50
6449;BME280;3257;52.298;13.690;2022-12-18T08:37:10;80680.72;;;-144.77;87.24
6449;BME280;3257;52.298;13.690;2022-12-18T08:39:37;80650.88;;;-144.77;86.84
6449;BME280;3257;52.298;13.690;2022-12-18T08:42:03;80660.81;;;-144.77;86.59
6449;BME280;3257;52.298;13.690;2022-12-18T08:44:48;80654.84;;;-144.77;86.54
6449;BME280;3257;52.298;13.690;2022-12-18T08:47:15;80670.75;;;-144.77;87.03
6449;BME280;3257;52.298;13.690;2022-12-18T08:49:41;80666.78;;;-144.77;87.06
6449;BME280;3257;52.298;13.690;2022-12-18T08:52:08;80670.75;;;-144.77;86.54
6449;BME280;3257;52.298;13.690;2022-12-18T08:54:35;80672.75;;;-144.77;86.90
6449;BME280;3257;52.298;13.690;2022-12-18T08:57:01;80700.59;;;-144.77;87.16
6449;BME280;3257;52.298;13.690;2022-12-18T08:59:28;80690.66;;;-144.77;87.20
6449;BME280;3257;52.298;13.690;2022-12-18T09:01:55;80688.66;;;-144.77;87.19
6449;BME280;3257;52.298;13.690;2022-12-18T09:04:22;80690.66;;;-144.77;87.20
6449;BME280;3257;52.298;13.690;2022-12-18T09:06:48;80686.69;;;-144.77;87.68
6449;BME280;3257;52.298;13.690;2022-12-18T09:09:17;80698.63;;;-144.77;87.24
6449;BME280;3257;52.298;13.690;2022-12-18T09:11:43;80700.59;;;-144.77;87.73
6449;BME280;3257;52.298;13.690;2022-12-18T09:14:10;80676.72;;;-144.77;87.78
6449;BME280;3257;52.298;13.690;2022-12-18T09:16:36;80670.75;;;-144.77;86.77
6449;BME280;3257;52.298;13.690;2022-12-18T09:19:04;80674.75;;;-144.77;86.43
6449;BME280;3257;52.298;13.690;2022-12-18T09:21:33;80680.72;;;-144.77;86.27
6449;BME280;3257;52.298;13.690;2022-12-18T09:24:03;80670.75;;;-144.77;86.34
6449;BME280;3257;52.298;13.690;2022-12-18T09:26:32;80686.69;;;-144.77;86.56
6449;BME280;3257;52.298;13.690;2022-12-18T09:28:58;80676.72;;;-144.77;86.51
6449;BME280;3257;52.298;13.690;2022-12-18T09:31:24;80678.72;;;-144.77;86.36
6449;BME280;3257;52.298;13.690;2022-12-18T09:33:51;80684.69;;;-144.77;86.37
6449;BME280;3257;52.298;13.690;2022-12-18T09:36:18;80672.75;;;-144.77;86.17
6449;BME280;3257;52.298;13.690;2022-12-18T09:38:44;80668.78;;;-144.77;86.09
6449;BME280;3257;52.298;13.690;2022-12-18T09:47:33;80670.75;;;-144.77;86.14
6449;BME280;3257;52.298;13.690;2022-12-18T09:49:35;80660.81;;;-144.77;86.63
6449;BME280;3257;52.298;13.690;2022-12-18T09:52:17;80656.84;;;-144.77;86.24
6449;BME280;3257;52.298;13.690;2022-12-18T09:54:53;80672.75;;;-144.77;86.06
6449;BME280;3257;52.298;13.690;2022-12-18T09:57:23;80672.75;;;-144.77;86.24
6449;BME280;3257;52.298;13.690;2022-12-18T10:00:06;80654.84;;;-144.77;85.84
6449;BME280;3257;52.298;13.690;2022-12-18T10:02:35;80662.81;;;-144.77;85.59
6449;BME280;3257;52.298;13.690;2022-12-18T10:10:12;80662.81;;;-144.77;86.49
6449;BME280;3257;52.298;13.690;2022-12-18T10:12:52;80654.84;;;-144.77;86.44
6449;BME280;3257;52.298;13.690;2022-12-18T10:16:38;80656.84;;;-144.77;86.14
6449;BME280;3257;52.298;13.690;2022-12-18T10:21:51;80650.88;;;-144.77;86.19
6449;BME280;3257;52.298;13.690;2022-12-18T10:25:02;80656.84;;;-144.77;86.19
6449;BME280;3257;52.298;13.690;2022-12-18T10:27:30;80640.91;;;-144.77;86.64
6449;BME280;3257;52.298;13.690;2022-12-18T10:29:58;80632.97;;;-144.77;86.42
6449;BME280;3257;52.298;13.690;2022-12-18T10:32:27;80642.91;;;-144.77;86.27
6449;BME280;3257;52.298;13.690;2022-12-18T10:34:56;80646.88;;;-144.77;86.22
6449;BME280;3257;52.298;13.690;2022-12-18T10:37:28;80652.84;;;-144.77;86.30
6449;BME280;3257;52.298;13.690;2022-12-18T10:42:34;80613.06;;;-144.77;86.74
6449;BME280;3257;52.298;13.690;2022-12-18T10:45:05;80619.03;;;-144.77;86.34
6449;BME280;3257;52.298;13.690;2022-12-18T10:47:33;80628.97;;;-144.77;86.09
6449;BME280;3257;52.298;13.690;2022-12-18T10:50:00;80634.94;;;-144.77;86.32
6449;BME280;3257;52.298;13.690;2022-12-18T10:52:27;80642.91;;;-144.77;86.56
6449;BME280;3257;52.298;13.690;2022-12-18T10:54:59;80623.00;;;-144.77;86.72
6449;BME280;3257;52.298;13.690;2022-12-18T10:57:36;80601.13;;;-144.77;86.57
6449;BME280;3257;52.298;13.690;2022-12-18T11:00:27;80583.22;;;-144.77;86.32
6449;BME280;3257;52.298;13.690;2022-12-18T11:02:55;80591.19;;;-144.77;86.57
6449;BME280;3257;52.298;13.690;2022-12-18T11:05:27;80587.19;;;-144.77;86.80
6449;BME280;3257;52.298;13.690;2022-12-18T11:07:55;80605.09;;;-144.77;85.80
6449;BME280;3257;52.298;13.690;2022-12-18T11:10:28;80605.09;;;-144.77;86.49
6449;BME280;3257;52.298;13.690;2022-12-18T11:13:09;80605.09;;;-144.77;87.12
6449;BME280;3257;52.298;13.690;2022-12-18T11:15:36;80591.19;;;-144.77;87.09
6449;BME280;3257;52.298;13.690;2022-12-18T11:18:03;80599.13;;;-144.77;87.26
6449;BME280;3257;52.298;13.690;2022-12-18T11:20:34;80579.25;;;-144.77;86.94
6449;BME280;3257;52.298;13.690;2022-12-18T11:23:04;80565.31;;;-144.77;86.73
6449;BME280;3257;52.298;13.690;2022-12-18T11:25:32;80577.25;;;-144.77;86.62
6449;BME280;3257;52.298;13.690;2022-12-18T11:28:27;80547.41;;;-144.77;86.33
6449;BME280;3257;52.298;13.690;2022-12-18T11:34:11;80551.41;;;-144.77;86.32
6449;BME280;3257;52.298;13.690;2022-12-18T11:36:58;80553.38;;;-144.77;86.61
6449;BME280;3257;52.298;13.690;2022-12-18T11:39:39;80551.41;;;-144.77;86.47
6449;BME280;3257;52.298;13.690;2022-12-18T11:42:18;80561.34;;;-144.77;87.29
6449;BME280;3257;52.298;13.690;2022-12-18T11:45:03;80569.28;;;-144.77;86.55
6449;BME280;3257;52.298;13.690;2022-12-18T11:47:40;80567.31;;;-144.77;86.95
6449;BME280;3257;52.298;13.690;2022-12-18T11:50:17;80555.38;;;-144.77;87.10
6449;BME280;3257;52.298;13.690;2022-12-18T11:52:44;80551.41;;;-144.77;86.76
6449;BME280;3257;52.298;13.690;2022-12-18T12:01:37;80535.47;;;-144.77;86.92
6449;BME280;3257;52.298;13.690;2022-12-18T12:16:15;80527.53;;;-144.77;86.70
6449;BME280;3257;52.298;13.690;2022-12-18T12:19:04;80523.53;;;-144.77;86.08
6449;BME280;3257;52.298;13.690;2022-12-18T12:21:40;80503.66;;;-144.77;85.49
6449;BME280;3257;52.298;13.690;2022-12-18T12:24:39;80507.63;;;-144.77;85.89
6449;BME280;3257;52.298;13.690;2022-12-18T12:27:35;80503.66;;;-144.77;85.83
6449;BME280;3257;52.298;13.690;2022-12-18T12:30:27;80505.63;;;-144.77;85.79
6449;BME280;3257;52.298;13.690;2022-12-18T12:35:52;80505.63;;;-144.77;85.15
6449;BME280;3257;52.298;13.690;2022-12-18T12:38:25;80499.66;;;-144.77;84.82
6449;BME280;3257;52.298;13.690;2022-12-18T12:40:59;80521.56;;;-144.77;84.74
6449;BME280;3257;52.298;13.690;2022-12-18T12:43:38;80517.56;;;-144.77;85.14
6449;BME280;3257;52.298;13.690;2022-12-18T12:46:27;80495.69;;;-144.77;85.09
6449;BME280;3257;52.298;13.690;2022-12-18T12:48:58;80499.66;;;-144.77;84.89
6449;BME280;3257;52.298;13.690;2022-12-18T12:51:35;80507.63;;;-144.77;84.37
6449;BME280;3257;52.298;13.690;2022-12-18T12:54:05;80501.66;;;-144.77;83.93
6449;BME280;3257;52.298;13.690;2022-12-18T12:56:45;80491.72;;;-144.77;83.81
6449;BME280;3257;52.298;13.690;2022-12-18T12:59:47;80489.72;;;-144.77;83.59
6449;BME280;3257;52.298;13.690;2022-12-18T13:08:09;80517.56;;;-144.77;84.59
6449;BME280;3257;52.298;13.690;2022-12-18T13:10:40;80527.53;;;-144.77;85.22
6449;BME280;3257;52.298;13.690;2022-12-18T13:13:10;80541.44;;;-144.77;85.47
6449;BME280;3257;52.298;13.690;2022-12-18T13:15:47;80547.41;;;-144.77;85.36
6449;BME280;3257;52.298;13.690;2022-12-18T13:18:18;80543.44;;;-144.77;85.57
6449;BME280;3257;52.298;13.690;2022-12-18T13:20:49;80569.28;;;-144.77;86.09
6449;BME280;3257;52.298;13.690;2022-12-18T13:25:54;80607.09;;;-144.77;86.68
6449;BME280;3257;52.298;13.690;2022-12-18T13:30:56;80595.16;;;-144.77;86.72
6449;BME280;3257;52.298;13.690;2022-12-18T13:41:21;80611.06;;;-144.77;86.67
6449;BME280;3257;52.298;13.690;2022-12-18T13:43:55;80607.09;;;-144.77;86.46
6449;BME280;3257;52.298;13.690;2022-12-18T13:46:28;80605.09;;;-144.77;86.47
6449;BME280;3257;52.298;13.690;2022-12-18T13:49:04;80583.22;;;-144.77;86.52
6449;BME280;3257;52.298;13.690;2022-12-18T13:51:47;80597.16;;;-144.77;85.64
6449;BME280;3257;52.298;13.690;2022-12-18T13:54:18;80587.19;;;-144.77;85.77
6449;BME280;3257;52.298;13.690;2022-12-18T13:56:47;80583.22;;;-144.77;86.14
6449;BME280;3257;52.298;13.690;2022-12-18T13:59:18;80567.31;;;-144.77;86.07
6449;BME280;3257;52.298;13.690;2022-12-18T14:01:55;80573.28;;;-144.77;86.22
6449;BME280;3257;52.298;13.690;2022-12-18T14:04:26;80585.22;;;-144.77;86.25
6449;BME280;3257;52.298;13.690;2022-12-18T14:06:57;80587.19;;;-144.77;86.49
6449;BME280;3257;52.298;13.690;2022-12-18T14:09:28;80609.09;;;-144.77;86.80
6449;BME280;3257;52.298;13.690;2022-12-18T14:11:56;80619.03;;;-144.77;87.08
6449;BME280;3257;52.298;13.690;2022-12-18T14:14:45;80611.06;;;-144.77;87.89
6449;BME280;3257;52.298;13.690;2022-12-18T14:17:15;80609.09;;;-144.77;88.17
6449;BME280;3257;52.298;13.690;2022-12-18T14:19:52;80617.03;;;-144.77;88.14
6449;BME280;3257;52.298;13.690;2022-12-18T14:22:25;80615.06;;;-144.77;88.19